createdAt,value
2018-02-17T00:01:28.759Z,6.01
2018-02-17T00:03:58.925Z,5.92
2018-02-17T00:06:28.094Z,5.70
2018-02-17T00:08:57.241Z,5.89
2018-02-17T00:11:26.374Z,6.23
2018-02-17T00:13:55.278Z,6.09
2018-02-17T00:16:24.441Z,5.93
2018-02-17T00:18:53.887Z,5.63
2018-02-17T00:21:23.136Z,5.73
2018-02-17T00:23:52.375Z,5.73
2018-02-17T00:26:21.801Z,5.71
2018-02-17T00:28:51.080Z,5.80
2018-02-17T00:31:20.417Z,5.80
2018-02-17T00:33:50.046Z,5.86
2018-02-17T00:36:19.721Z,5.66
2018-02-17T00:38:49.226Z,5.68
2018-02-17T00:41:18.446Z,6.00
2018-02-17T00:43:47.828Z,5.94
2018-02-17T00:46:16.893Z,5.65
2018-02-17T00:48:46.110Z,5.81
2018-02-17T00:51:15.533Z,5.76
2018-02-17T00:53:44.592Z,5.54
2018-02-17T00:56:13.512Z,5.79
2018-02-17T00:58:42.994Z,5.78
2018-02-17T01:01:12.965Z,5.87
2018-02-17T01:03:42.352Z,5.72
2018-02-17T01:06:11.668Z,5.54
2018-02-17T01:08:40.842Z,5.55
2018-02-17T01:11:09.982Z,5.43
2018-02-17T01:13:39.832Z,5.41
2018-02-17T01:16:09.059Z,5.32
2018-02-17T01:18:38.199Z,5.23
2018-02-17T01:21:07.867Z,5.23
2018-02-17T01:23:36.974Z,5.27
2018-02-17T01:26:06.577Z,5.26
2018-02-17T01:28:35.529Z,5.05
2018-02-17T01:31:04.737Z,5.00
2018-02-17T01:33:33.871Z,5.02
2018-02-17T01:36:03.375Z,5.16
2018-02-17T01:38:32.865Z,5.06
2018-02-17T01:41:01.718Z,5.09
2018-02-17T01:43:30.797Z,5.25
2018-02-17T01:45:59.873Z,5.15
2018-02-17T01:48:29.138Z,5.20
2018-02-17T01:50:58.514Z,5.71
2018-02-17T01:53:27.596Z,5.15
2018-02-17T01:55:56.690Z,5.01
2018-02-17T01:58:25.994Z,4.83
2018-02-17T02:00:55.115Z,4.73
2018-02-17T02:03:23.977Z,4.65
2018-02-17T02:05:53.250Z,4.66
2018-02-17T02:08:22.551Z,4.64
2018-02-17T02:10:51.832Z,4.49
2018-02-17T02:13:21.243Z,4.44
2018-02-17T02:15:50.424Z,4.41
2018-02-17T02:18:19.587Z,4.40
2018-02-17T02:20:48.856Z,4.41
2018-02-17T02:23:18.185Z,4.44
2018-02-17T02:25:47.408Z,4.50
2018-02-17T02:28:16.723Z,4.38
2018-02-17T02:30:45.818Z,4.46
2018-02-17T02:33:15.151Z,4.41
2018-02-17T02:35:44.555Z,4.27
2018-02-17T02:38:13.990Z,4.18
2018-02-17T02:40:43.367Z,4.13
2018-02-17T02:43:12.632Z,4.30
2018-02-17T02:45:41.648Z,4.21
2018-02-17T02:48:11.098Z,4.29
2018-02-17T02:50:40.541Z,4.23
2018-02-17T02:53:10.082Z,4.16
2018-02-17T02:55:39.165Z,4.19
2018-02-17T02:58:08.457Z,4.11
2018-02-17T03:00:37.760Z,4.11
2018-02-17T03:03:07.062Z,4.16
2018-02-17T03:05:36.169Z,4.23
2018-02-17T03:08:05.655Z,4.13
2018-02-17T03:10:35.137Z,3.97
2018-02-17T03:13:04.502Z,3.93
2018-02-17T03:15:33.757Z,3.88
2018-02-17T03:18:02.902Z,3.83
2018-02-17T03:20:32.278Z,3.87
2018-02-17T03:23:02.077Z,3.83
2018-02-17T03:25:31.825Z,3.85
2018-02-17T03:28:00.945Z,3.77
2018-02-17T03:30:30.207Z,3.72
2018-02-17T03:32:59.589Z,3.65
2018-02-17T03:35:30.801Z,3.74
2018-02-17T03:38:00.723Z,3.75
2018-02-17T03:40:29.649Z,4.07
2018-02-17T03:42:58.621Z,3.91
2018-02-17T03:45:27.818Z,3.74
2018-02-17T03:47:56.964Z,3.56
2018-02-17T03:50:26.079Z,3.90
2018-02-17T03:52:55.081Z,3.86
2018-02-17T03:55:24.111Z,3.76
2018-02-17T03:57:53.232Z,3.69
2018-02-17T04:00:22.921Z,3.64
2018-02-17T04:02:52.278Z,3.65
2018-02-17T04:05:21.621Z,3.67
2018-02-17T04:07:50.665Z,3.40
2018-02-17T04:10:19.928Z,3.28
2018-02-17T04:12:49.024Z,3.39
2018-02-17T04:15:18.315Z,3.25
2018-02-17T04:17:47.509Z,3.12
2018-02-17T04:20:16.844Z,2.99
2018-02-17T04:22:46.195Z,2.96
2018-02-17T04:25:15.443Z,2.85
2018-02-17T04:27:44.880Z,2.95
2018-02-17T04:30:14.202Z,2.81
2018-02-17T04:32:43.241Z,2.76
2018-02-17T04:35:12.609Z,2.67
2018-02-17T04:37:41.998Z,2.72
2018-02-17T04:40:21.490Z,2.74
2018-02-17T04:42:51.460Z,2.69
2018-02-17T04:45:21.390Z,2.84
2018-02-17T04:50:58.767Z,2.69
2018-02-17T04:53:28.105Z,2.66
2018-02-17T04:59:16.262Z,2.64
2018-02-17T05:01:47.603Z,2.62
2018-02-17T05:04:19.590Z,2.62
2018-02-17T05:06:51.251Z,2.94
2018-02-17T05:09:20.346Z,2.83
2018-02-17T05:11:49.562Z,2.63
2018-02-17T05:14:19.213Z,2.57
2018-02-17T05:16:51.270Z,2.63
2018-02-17T05:22:39.032Z,2.72
2018-02-17T05:25:11.188Z,2.69
2018-02-17T05:27:41.997Z,2.58
2018-02-17T05:30:12.417Z,2.83
2018-02-17T05:32:44.397Z,2.72
2018-02-17T05:35:14.754Z,2.80
2018-02-17T05:37:44.155Z,2.90
2018-02-17T05:40:25.123Z,2.80
2018-02-17T05:42:54.757Z,2.72
2018-02-17T05:45:24.156Z,2.77
2018-02-17T05:47:58.869Z,2.60
2018-02-17T05:50:28.577Z,2.54
2018-02-17T05:52:58.172Z,2.45
2018-02-17T05:55:27.700Z,2.34
2018-02-17T05:57:56.847Z,2.46
2018-02-17T06:00:26.190Z,2.30
2018-02-17T06:02:55.730Z,2.37
2018-02-17T06:05:24.986Z,2.41
2018-02-17T06:07:54.392Z,2.52
2018-02-17T06:10:23.421Z,2.62
2018-02-17T06:12:52.590Z,2.65
2018-02-17T06:15:22.001Z,2.65
2018-02-17T06:17:51.157Z,2.69
2018-02-17T06:20:20.198Z,2.77
2018-02-17T06:22:49.405Z,2.81
2018-02-17T06:25:18.620Z,2.89
2018-02-17T06:27:47.961Z,3.09
2018-02-17T06:30:17.377Z,3.14
2018-02-17T06:32:46.661Z,3.43
2018-02-17T06:35:16.081Z,3.19
2018-02-17T06:37:45.602Z,3.12
2018-02-17T06:40:14.964Z,3.21
2018-02-17T06:42:43.920Z,3.21
2018-02-17T06:45:13.194Z,3.36
2018-02-17T06:47:42.282Z,3.36
2018-02-17T06:50:11.558Z,3.25
2018-02-17T06:52:40.979Z,3.49
2018-02-17T06:55:10.373Z,3.56
2018-02-17T06:57:39.263Z,3.57
2018-02-17T07:00:08.331Z,3.64
2018-02-17T07:02:37.435Z,3.56
2018-02-17T07:05:06.684Z,3.52
2018-02-17T07:07:35.645Z,3.46
2018-02-17T07:10:05.009Z,3.87
2018-02-17T07:12:34.300Z,3.95
2018-02-17T07:15:03.218Z,3.88
2018-02-17T07:17:32.304Z,3.89
2018-02-17T07:20:01.557Z,4.23
2018-02-17T07:22:30.630Z,3.97
2018-02-17T07:24:59.938Z,3.94
2018-02-17T07:27:29.059Z,4.02
2018-02-17T07:29:57.988Z,3.92
2018-02-17T07:32:26.956Z,3.85
2018-02-17T07:34:55.998Z,3.99
2018-02-17T07:37:25.022Z,3.87
2018-02-17T07:39:54.273Z,3.95
2018-02-17T07:42:23.479Z,3.77
2018-02-17T07:44:52.813Z,4.08
2018-02-17T07:47:21.952Z,4.38
2018-02-17T07:49:51.207Z,4.83
2018-02-17T07:52:20.249Z,4.41
2018-02-17T07:54:49.266Z,4.63
2018-02-17T07:57:18.286Z,5.04
2018-02-17T07:59:47.381Z,4.72
2018-02-17T08:02:16.735Z,4.43
2018-02-17T08:04:45.700Z,4.32
2018-02-17T08:07:14.772Z,4.47
2018-02-17T08:09:44.145Z,4.72
2018-02-17T08:12:13.145Z,4.65
2018-02-17T08:14:42.480Z,4.94
2018-02-17T08:17:11.454Z,4.70
2018-02-17T08:19:40.512Z,4.88
2018-02-17T08:22:09.849Z,5.08
2018-02-17T08:24:38.993Z,4.98
2018-02-17T08:27:08.066Z,5.09
2018-02-17T08:29:37.381Z,5.39
2018-02-17T08:32:06.373Z,5.69
2018-02-17T08:34:35.377Z,5.55
2018-02-17T08:37:04.499Z,5.65
2018-02-17T08:39:33.933Z,5.96
2018-02-17T08:42:03.298Z,5.98
2018-02-17T08:44:32.481Z,5.95
2018-02-17T08:47:01.669Z,6.15
2018-02-17T08:49:30.943Z,6.27
2018-02-17T08:51:59.970Z,6.66
2018-02-17T08:54:29.094Z,6.78
2018-02-17T08:56:58.126Z,6.95
2018-02-17T08:59:27.275Z,7.29
2018-02-17T09:01:56.277Z,7.60
2018-02-17T09:04:25.342Z,7.60
2018-02-17T09:06:54.357Z,7.34
2018-02-17T09:09:23.529Z,7.48
2018-02-17T09:11:53.027Z,7.63
2018-02-17T09:14:22.286Z,7.70
2018-02-17T09:16:51.430Z,8.24
2018-02-17T09:19:20.671Z,7.85
2018-02-17T09:21:49.612Z,7.89
2018-02-17T09:24:19.554Z,7.84
2018-02-17T09:26:48.916Z,8.03
2018-02-17T09:29:18.123Z,7.97
2018-02-17T09:31:47.233Z,8.22
2018-02-17T09:34:16.462Z,8.57
2018-02-17T09:36:46.011Z,8.46
2018-02-17T09:39:15.549Z,8.62
2018-02-17T09:41:44.911Z,8.83
2018-02-17T09:44:14.128Z,8.83
2018-02-17T09:46:43.514Z,9.03
2018-02-17T09:49:12.789Z,9.29
2018-02-17T09:51:42.002Z,9.29
2018-02-17T09:54:11.406Z,9.42
2018-02-17T09:56:40.607Z,9.31
2018-02-17T09:59:09.813Z,9.18
2018-02-17T10:01:39.187Z,9.51
2018-02-17T10:04:08.532Z,9.43
2018-02-17T10:06:38.533Z,9.53
2018-02-17T10:09:07.748Z,9.43
2018-02-17T10:11:37.174Z,9.93
2018-02-17T10:14:06.444Z,9.60
2018-02-17T10:16:35.737Z,9.58
2018-02-17T10:19:05.248Z,10.05
2018-02-17T10:21:34.646Z,9.72
2018-02-17T10:24:03.814Z,9.95
2018-02-17T10:26:33.253Z,10.16
2018-02-17T10:29:02.519Z,9.84
2018-02-17T10:31:31.837Z,10.05
2018-02-17T10:34:01.186Z,9.74
2018-02-17T10:36:30.630Z,9.89
2018-02-17T10:38:59.798Z,10.15
2018-02-17T10:41:28.982Z,10.19
2018-02-17T10:43:58.256Z,10.70
2018-02-17T10:46:27.506Z,10.45
2018-02-17T10:48:56.929Z,10.23
2018-02-17T10:51:25.994Z,10.29
2018-02-17T10:53:55.664Z,10.12
2018-02-17T10:56:24.793Z,10.07
2018-02-17T10:58:53.956Z,10.46
2018-02-17T11:01:23.477Z,10.38
2018-02-17T11:03:53.075Z,10.73
2018-02-17T11:06:22.122Z,10.79
2018-02-17T11:08:51.299Z,10.07
2018-02-17T11:11:20.561Z,10.20
2018-02-17T11:13:49.651Z,10.42
2018-02-17T11:16:18.853Z,10.32
2018-02-17T11:18:48.363Z,10.69
2018-02-17T11:21:17.454Z,10.83
2018-02-17T11:23:46.814Z,9.99
2018-02-17T11:26:15.893Z,10.06
2018-02-17T11:28:45.097Z,11.13
2018-02-17T11:31:14.628Z,10.89
2018-02-17T11:33:43.797Z,10.67
2018-02-17T11:36:13.335Z,11.02
2018-02-17T11:38:42.502Z,11.03
2018-02-17T11:41:11.797Z,10.57
2018-02-17T11:43:41.034Z,10.91
2018-02-17T11:46:10.587Z,11.11
2018-02-17T11:48:40.800Z,11.07
2018-02-17T11:51:10.412Z,10.80
2018-02-17T11:53:39.696Z,10.89
2018-02-17T11:56:09.428Z,11.10
2018-02-17T11:58:39.026Z,11.16
2018-02-17T12:01:08.415Z,9.81
2018-02-17T12:03:37.950Z,10.76
2018-02-17T12:06:07.164Z,10.58
2018-02-17T12:08:36.334Z,10.68
2018-02-17T12:11:05.693Z,11.08
2018-02-17T12:13:34.983Z,11.17
2018-02-17T12:16:04.318Z,10.29
2018-02-17T12:18:33.556Z,10.49
2018-02-17T12:21:02.837Z,10.08
2018-02-17T12:23:32.376Z,10.11
2018-02-17T12:26:01.791Z,9.68
2018-02-17T12:28:30.971Z,9.38
2018-02-17T12:31:00.640Z,9.72
2018-02-17T12:33:29.882Z,10.24
2018-02-17T12:35:59.071Z,9.61
2018-02-17T12:38:28.239Z,8.76
2018-02-17T12:40:57.715Z,8.84
2018-02-17T12:43:27.087Z,9.24
2018-02-17T12:45:56.063Z,8.77
2018-02-17T12:48:25.261Z,8.87
2018-02-17T12:50:54.328Z,9.23
2018-02-17T12:53:23.682Z,9.67
2018-02-17T12:55:52.767Z,9.16
2018-02-17T12:58:22.097Z,8.91
2018-02-17T13:00:51.422Z,8.49
2018-02-17T13:03:20.332Z,8.59
2018-02-17T13:05:49.620Z,9.25
2018-02-17T13:08:19.055Z,9.02
2018-02-17T13:10:48.746Z,10.05
2018-02-17T13:13:18.063Z,10.02
2018-02-17T13:15:46.945Z,9.60
2018-02-17T13:18:16.244Z,9.02
2018-02-17T13:20:45.314Z,9.54
2018-02-17T13:23:14.734Z,8.97
2018-02-17T13:25:44.235Z,8.91
2018-02-17T13:28:25.107Z,9.28
2018-02-17T13:30:54.096Z,9.45
2018-02-17T13:33:23.332Z,9.32
2018-02-17T13:35:52.554Z,9.41
2018-02-17T13:38:21.565Z,9.13
2018-02-17T13:40:51.206Z,8.88
2018-02-17T13:43:20.375Z,9.20
2018-02-17T13:45:49.537Z,9.29
2018-02-17T13:48:18.774Z,9.04
2018-02-17T13:50:48.466Z,9.47
2018-02-17T13:53:17.890Z,9.49
2018-02-17T13:55:47.155Z,9.54
2018-02-17T13:58:16.618Z,9.28
2018-02-17T14:00:46.059Z,8.66
2018-02-17T14:03:15.734Z,9.28
2018-02-17T14:05:45.231Z,9.63
2018-02-17T14:08:14.365Z,9.06
2018-02-17T14:10:43.731Z,8.74
2018-02-17T14:13:13.069Z,9.13
2018-02-17T14:15:42.271Z,8.43
2018-02-17T14:18:11.574Z,8.30
2018-02-17T14:20:40.984Z,8.36
2018-02-17T14:23:10.204Z,8.61
2018-02-17T14:25:39.652Z,8.14
2018-02-17T14:28:09.109Z,8.63
2018-02-17T14:30:38.552Z,8.57
2018-02-17T14:33:07.758Z,8.69
2018-02-17T14:35:37.062Z,8.35
2018-02-17T14:38:06.352Z,8.42
2018-02-17T14:40:35.386Z,8.72
2018-02-17T14:43:04.711Z,8.47
2018-02-17T14:45:34.248Z,8.33
2018-02-17T14:48:03.322Z,8.14
2018-02-17T14:50:32.862Z,8.20
2018-02-17T14:53:02.503Z,8.25
2018-02-17T14:55:31.975Z,8.46
2018-02-17T14:58:01.358Z,8.15
2018-02-17T15:00:30.783Z,8.39
2018-02-17T15:03:00.014Z,8.82
2018-02-17T15:05:29.512Z,8.24
2018-02-17T15:07:58.687Z,8.72
2018-02-17T15:10:27.653Z,8.21
2018-02-17T15:12:56.855Z,7.94
2018-02-17T15:15:25.886Z,7.87
2018-02-17T15:17:55.098Z,8.03
2018-02-17T15:20:24.575Z,7.93
2018-02-17T15:22:53.963Z,7.67
2018-02-17T15:25:23.182Z,7.72
2018-02-17T15:27:52.449Z,7.67
2018-02-17T15:30:21.772Z,7.55
2018-02-17T15:32:50.795Z,7.56
2018-02-17T15:35:19.925Z,7.39
2018-02-17T15:37:48.895Z,7.57
2018-02-17T15:40:18.103Z,7.74
2018-02-17T15:42:47.580Z,7.42
2018-02-17T15:45:16.839Z,7.31
2018-02-17T15:47:46.370Z,7.14
2018-02-17T15:50:15.310Z,6.96
2018-02-17T15:52:44.259Z,7.05
2018-02-17T15:55:13.439Z,6.93
2018-02-17T15:57:42.741Z,6.83
2018-02-17T16:00:11.973Z,6.82
2018-02-17T16:02:41.599Z,6.91
2018-02-17T16:05:10.965Z,6.75
2018-02-17T16:07:40.035Z,6.72
2018-02-17T16:10:09.431Z,6.67
2018-02-17T16:12:38.495Z,6.72
2018-02-17T16:15:07.921Z,6.78
2018-02-17T16:17:37.599Z,6.66
2018-02-17T16:20:07.168Z,6.69
2018-02-17T16:22:36.668Z,6.61
2018-02-17T16:25:06.115Z,6.62
2018-02-17T16:27:35.436Z,6.38
2018-02-17T16:30:04.534Z,6.41
2018-02-17T16:32:33.738Z,6.35
2018-02-17T16:35:02.743Z,6.33
2018-02-17T16:37:31.735Z,6.53
2018-02-17T16:40:00.795Z,6.41
2018-02-17T16:42:29.988Z,6.32
2018-02-17T16:44:59.459Z,6.19
2018-02-17T16:47:28.715Z,6.31
2018-02-17T16:49:57.698Z,6.14
2018-02-17T16:52:26.742Z,6.03
2018-02-17T16:54:55.899Z,5.96
2018-02-17T16:57:24.964Z,5.79
2018-02-17T16:59:54.118Z,5.89
2018-02-17T17:02:23.305Z,5.90
2018-02-17T17:04:52.746Z,6.02
2018-02-17T17:07:21.830Z,6.07
2018-02-17T17:09:50.744Z,5.98
2018-02-17T17:12:20.135Z,5.87
2018-02-17T17:14:49.385Z,5.97
2018-02-17T17:17:18.593Z,6.09
2018-02-17T17:19:47.593Z,5.99
2018-02-17T17:22:16.486Z,6.16
2018-02-17T17:24:45.724Z,6.10
2018-02-17T17:27:14.711Z,6.09
2018-02-17T17:29:43.776Z,5.92
2018-02-17T17:32:12.896Z,5.96
2018-02-17T17:34:41.921Z,5.93
2018-02-17T17:37:11.242Z,5.95
2018-02-17T17:39:40.260Z,5.85
2018-02-17T17:42:10.133Z,5.77
2018-02-17T17:44:39.195Z,5.84
2018-02-17T17:47:08.406Z,5.75
2018-02-17T17:49:37.341Z,5.67
2018-02-17T17:52:06.295Z,5.43
2018-02-17T17:54:35.177Z,5.29
2018-02-17T17:57:04.540Z,5.32
2018-02-17T17:59:33.403Z,5.52
2018-02-17T18:02:02.282Z,5.41
2018-02-17T18:04:31.710Z,5.55
2018-02-17T18:07:00.844Z,5.52
2018-02-17T18:09:29.882Z,5.45
2018-02-17T18:11:59.064Z,5.17
2018-02-17T18:14:28.525Z,5.09
2018-02-17T18:16:57.558Z,5.01
2018-02-17T18:19:26.706Z,5.06
2018-02-17T18:21:55.921Z,4.96
2018-02-17T18:24:24.879Z,4.94
2018-02-17T18:26:53.973Z,4.93
2018-02-17T18:29:23.021Z,4.94
2018-02-17T18:31:52.423Z,4.95
2018-02-17T18:34:21.478Z,4.91
2018-02-17T18:36:50.470Z,4.91
2018-02-17T18:39:19.591Z,4.92
2018-02-17T18:41:48.829Z,4.91
2018-02-17T18:44:17.897Z,4.86
2018-02-17T18:46:47.354Z,4.86
2018-02-17T18:49:16.410Z,4.73
2018-02-17T18:51:45.566Z,4.70
2018-02-17T18:54:14.558Z,4.63
2018-02-17T18:56:43.680Z,4.58
2018-02-17T18:59:12.823Z,4.56
2018-02-17T19:01:42.132Z,4.54
2018-02-17T19:04:11.466Z,4.52
2018-02-17T19:06:40.378Z,4.51
2018-02-17T19:09:10.019Z,4.55
2018-02-17T19:11:39.301Z,4.45
2018-02-17T19:14:08.441Z,4.50
2018-02-17T19:16:37.679Z,4.46
2018-02-17T19:19:06.559Z,4.44
2018-02-17T19:21:35.478Z,4.45
2018-02-17T19:24:04.738Z,4.51
2018-02-17T19:26:33.855Z,4.48
2018-02-17T19:29:03.125Z,4.49
2018-02-17T19:31:32.426Z,4.48
2018-02-17T19:34:01.742Z,4.43
2018-02-17T19:36:30.833Z,4.42
2018-02-17T19:38:59.697Z,4.43
2018-02-17T19:41:29.007Z,4.42
2018-02-17T19:43:58.006Z,4.41
2018-02-17T19:46:27.195Z,4.39
2018-02-17T19:48:56.193Z,4.42
2018-02-17T19:51:25.330Z,4.35
2018-02-17T19:53:54.354Z,4.30
2018-02-17T19:56:23.551Z,4.36
2018-02-17T19:58:52.790Z,4.37
2018-02-17T20:01:22.433Z,4.38
2018-02-17T20:03:51.607Z,4.35
2018-02-17T20:06:21.062Z,4.36
2018-02-17T20:08:50.335Z,4.32
2018-02-17T20:11:19.535Z,4.27
2018-02-17T20:13:48.796Z,4.23
2018-02-17T20:16:18.022Z,4.24
2018-02-17T20:18:47.335Z,4.39
2018-02-17T20:21:16.344Z,4.38
2018-02-17T20:23:45.448Z,4.41
2018-02-17T20:26:14.647Z,4.57
2018-02-17T20:28:44.032Z,4.45
2018-02-17T20:31:13.380Z,4.29
2018-02-17T20:33:42.599Z,4.23
2018-02-17T20:36:12.030Z,4.16
2018-02-17T20:38:41.054Z,4.23
2018-02-17T20:41:10.234Z,4.18
2018-02-17T20:43:39.246Z,4.18
2018-02-17T20:46:08.400Z,4.21
2018-02-17T20:48:37.665Z,4.20
2018-02-17T20:51:07.031Z,4.15
2018-02-17T20:53:35.899Z,4.12
2018-02-17T20:56:04.769Z,4.14
2018-02-17T20:58:34.149Z,4.14
2018-02-17T21:01:03.462Z,4.07
2018-02-17T21:03:32.619Z,4.03
2018-02-17T21:06:02.522Z,4.02
2018-02-17T21:08:31.638Z,4.09
2018-02-17T21:11:00.913Z,4.18
2018-02-17T21:13:29.854Z,4.24
2018-02-17T21:15:59.003Z,5.04
2018-02-17T21:18:28.022Z,4.49
2018-02-17T21:20:57.228Z,4.32
2018-02-17T21:23:26.322Z,4.39
2018-02-17T21:25:55.383Z,4.46
2018-02-17T21:28:24.365Z,4.57
2018-02-17T21:30:53.392Z,4.62
2018-02-17T21:33:22.515Z,4.65
2018-02-17T21:35:52.023Z,4.67
2018-02-17T21:38:21.479Z,4.73
2018-02-17T21:40:50.768Z,4.66
2018-02-17T21:43:19.819Z,4.77
2018-02-17T21:45:48.955Z,4.84
2018-02-17T21:48:18.027Z,4.88
2018-02-17T21:50:47.398Z,4.71
2018-02-17T21:53:16.495Z,4.74
2018-02-17T21:55:45.354Z,4.87
2018-02-17T21:58:14.459Z,4.90
2018-02-17T22:00:43.518Z,4.71
2018-02-17T22:03:12.582Z,4.77
2018-02-17T22:05:41.779Z,4.87
2018-02-17T22:08:10.782Z,5.05
2018-02-17T22:10:39.758Z,5.01
2018-02-17T22:13:08.630Z,4.92
2018-02-17T22:15:37.754Z,4.86
2018-02-17T22:18:06.982Z,4.83
2018-02-17T22:20:35.838Z,4.76
2018-02-17T22:23:04.982Z,5.29
2018-02-17T22:25:34.183Z,4.86
2018-02-17T22:28:03.601Z,4.67
2018-02-17T22:30:32.470Z,4.66
2018-02-17T22:33:01.395Z,4.65
2018-02-17T22:35:30.464Z,4.64
2018-02-17T22:37:59.671Z,4.70
2018-02-17T22:40:28.875Z,4.75
2018-02-17T22:42:57.932Z,4.68
2018-02-17T22:45:27.252Z,4.67
2018-02-17T22:47:56.499Z,4.74
2018-02-17T22:50:25.771Z,4.77
2018-02-17T22:52:55.171Z,4.74
2018-02-17T22:55:24.299Z,4.76
2018-02-17T22:57:53.494Z,4.72
2018-02-17T23:00:31.261Z,4.71
2018-02-17T23:03:00.336Z,4.63
2018-02-17T23:05:29.719Z,4.64
2018-02-17T23:07:59.360Z,4.61
2018-02-17T23:10:28.637Z,4.56
2018-02-17T23:12:57.878Z,4.61
2018-02-17T23:15:27.462Z,4.50
2018-02-17T23:17:56.985Z,4.43
2018-02-17T23:20:26.286Z,4.45
2018-02-17T23:22:55.704Z,4.46
2018-02-17T23:25:24.986Z,4.45
2018-02-17T23:27:54.594Z,4.44
2018-02-17T23:30:23.558Z,4.49
2018-02-17T23:32:52.539Z,4.49
2018-02-17T23:35:21.497Z,4.51
2018-02-17T23:37:51.124Z,4.53
2018-02-17T23:40:20.513Z,4.51
2018-02-17T23:42:49.746Z,4.48
2018-02-17T23:45:18.618Z,4.53
2018-02-17T23:47:48.002Z,4.42
2018-02-17T23:50:17.082Z,4.42
2018-02-17T23:52:46.098Z,4.44
2018-02-17T23:55:15.573Z,4.46
2018-02-17T23:57:44.614Z,4.45
